createdAt,value
2023-03-15T00:00:12.605Z,12.10
2023-03-15T00:03:04.325Z,12.70
2023-03-15T00:05:32.705Z,12.20
2023-03-15T00:08:04.303Z,8.70
2023-03-15T00:10:32.875Z,14.00
2023-03-15T00:13:01.199Z,6.70
2023-03-15T00:15:29.691Z,11.70
2023-03-15T00:17:58.075Z,8.80
2023-03-15T00:20:26.516Z,8.10
2023-03-15T00:22:54.943Z,10.60
2023-03-15T00:25:23.312Z,8.70
2023-03-15T00:27:51.633Z,10.20
2023-03-15T00:30:20.024Z,6.70
2023-03-15T00:32:48.489Z,8.30
2023-03-15T00:35:18.475Z,10.20
2023-03-15T00:37:46.850Z,8.50
2023-03-15T00:40:15.814Z,11.40
2023-03-15T00:42:50.350Z,10.40
2023-03-15T00:45:21.880Z,12.30
2023-03-15T00:47:54.986Z,9.40
2023-03-15T00:50:23.961Z,17.90
2023-03-15T00:52:52.287Z,11.00
2023-03-15T00:55:21.848Z,13.50
2023-03-15T00:57:50.282Z,11.40
2023-03-15T01:00:25.038Z,9.20
2023-03-15T01:02:54.638Z,13.30
2023-03-15T01:05:23.236Z,12.00
2023-03-15T01:07:52.524Z,8.30
2023-03-15T01:10:20.927Z,14.70
2023-03-15T01:12:49.240Z,9.40
2023-03-15T01:15:17.579Z,10.20
2023-03-15T01:17:46.109Z,8.10
2023-03-15T01:20:15.519Z,8.50
2023-03-15T01:22:43.966Z,9.10
2023-03-15T01:25:12.345Z,8.20
2023-03-15T01:27:40.655Z,10.80
2023-03-15T01:30:09.911Z,8.10
2023-03-15T01:32:38.339Z,10.80
2023-03-15T01:35:07.721Z,11.10
2023-03-15T01:37:36.194Z,12.30
2023-03-15T01:40:06.743Z,12.60
2023-03-15T01:43:04.715Z,10.80
2023-03-15T01:46:25.036Z,8.00
2023-03-15T01:49:14.803Z,9.40
2023-03-15T01:52:09.371Z,11.30
2023-03-15T01:54:56.890Z,9.30
2023-03-15T01:57:36.415Z,7.00
2023-03-15T02:00:12.203Z,8.40
2023-03-15T02:02:51.904Z,6.70
2023-03-15T02:05:35.707Z,10.40
2023-03-15T02:08:08.792Z,7.90
2023-03-15T02:10:48.131Z,5.30
2023-03-15T02:13:22.844Z,8.90
2023-03-15T02:15:53.698Z,5.50
2023-03-15T02:18:22.913Z,6.30
2023-03-15T02:21:29.553Z,4.30
2023-03-15T02:26:37.342Z,3.20
2023-03-15T02:29:05.790Z,7.90
2023-03-15T02:31:38.226Z,4.80
2023-03-15T02:34:08.370Z,6.50
2023-03-15T02:36:37.474Z,10.00
2023-03-15T02:39:21.774Z,12.40
2023-03-15T02:41:57.362Z,9.60
2023-03-15T02:44:34.140Z,8.50
2023-03-15T02:47:08.506Z,10.70
2023-03-15T02:49:44.920Z,7.20
2023-03-15T02:52:14.144Z,7.90
2023-03-15T02:54:45.750Z,9.60
2023-03-15T02:57:16.687Z,5.80
2023-03-15T02:59:45.537Z,10.60
2023-03-15T03:02:14.144Z,8.60
2023-03-15T03:04:42.706Z,10.90
2023-03-15T03:07:11.170Z,7.60
2023-03-15T03:09:39.467Z,8.80
2023-03-15T03:12:08.300Z,11.90
2023-03-15T03:14:36.666Z,13.60
2023-03-15T03:17:05.052Z,6.40
2023-03-15T03:19:33.375Z,8.70
2023-03-15T03:22:01.676Z,7.90
2023-03-15T03:24:30.201Z,8.70
2023-03-15T03:26:58.615Z,14.10
2023-03-15T03:29:27.087Z,11.50
2023-03-15T03:31:55.456Z,5.80
2023-03-15T03:34:23.908Z,8.50
2023-03-15T03:36:52.347Z,7.80
2023-03-15T03:39:20.662Z,6.10
2023-03-15T03:41:49.935Z,8.90
2023-03-15T03:44:18.500Z,8.00
2023-03-15T03:46:46.790Z,8.00
2023-03-15T03:49:15.149Z,6.60
2023-03-15T03:51:43.426Z,9.50
2023-03-15T03:54:11.809Z,11.00
2023-03-15T03:56:40.244Z,9.00
2023-03-15T03:59:08.674Z,6.80
2023-03-15T04:01:37.012Z,9.60
2023-03-15T04:04:06.545Z,9.00
2023-03-15T04:06:35.394Z,8.00
2023-03-15T04:17:19.901Z,8.70
2023-03-15T04:19:48.256Z,9.60
2023-03-15T04:22:16.590Z,8.80
2023-03-15T04:24:44.931Z,7.30
2023-03-15T04:27:14.788Z,11.70
2023-03-15T04:29:45.198Z,9.30
2023-03-15T04:32:13.652Z,9.70
2023-03-15T04:34:42.137Z,24.80
2023-03-15T04:37:10.706Z,10.30
2023-03-15T04:39:39.160Z,19.10
2023-03-15T04:42:07.809Z,8.00
2023-03-15T04:44:36.580Z,10.40
2023-03-15T04:47:05.057Z,9.00
2023-03-15T04:49:33.597Z,13.50
2023-03-15T04:52:01.951Z,10.20
2023-03-15T04:54:30.452Z,10.30
2023-03-15T04:56:58.746Z,7.60
2023-03-15T04:59:27.055Z,8.30
2023-03-15T05:01:55.442Z,8.30
2023-03-15T05:04:23.914Z,6.80
2023-03-15T05:06:52.285Z,8.00
2023-03-15T05:09:22.068Z,10.50
2023-03-15T05:11:51.096Z,9.20
2023-03-15T05:14:19.457Z,7.90
2023-03-15T05:16:49.166Z,9.60
2023-03-15T05:19:17.529Z,6.70
2023-03-15T05:21:45.819Z,10.60
2023-03-15T05:24:14.613Z,6.80
2023-03-15T05:26:46.520Z,9.20
2023-03-15T05:29:15.653Z,26.30
2023-03-15T05:31:44.085Z,5.80
2023-03-15T05:34:12.395Z,12.20
2023-03-15T05:36:41.888Z,6.20
2023-03-15T05:39:11.663Z,8.60
2023-03-15T05:41:39.970Z,11.40
2023-03-15T05:44:08.298Z,8.80
2023-03-15T05:46:36.837Z,12.10
2023-03-15T05:49:05.174Z,11.50
2023-03-15T05:51:33.517Z,9.90
2023-03-15T05:54:01.913Z,9.40
2023-03-15T05:56:30.242Z,11.30
2023-03-15T05:58:58.683Z,11.20
2023-03-15T06:01:27.051Z,9.00
2023-03-15T06:03:55.383Z,7.10
2023-03-15T06:06:23.723Z,13.60
2023-03-15T06:08:52.017Z,14.00
2023-03-15T06:11:20.643Z,8.70
2023-03-15T06:13:48.920Z,18.90
2023-03-15T06:16:17.286Z,16.70
2023-03-15T06:18:45.674Z,14.10
2023-03-15T06:21:14.069Z,11.30
2023-03-15T06:23:42.596Z,9.90
2023-03-15T06:26:11.144Z,13.20
2023-03-15T06:28:39.448Z,15.40
2023-03-15T06:31:15.401Z,11.30
2023-03-15T06:33:43.768Z,13.90
2023-03-15T06:36:12.679Z,10.00
2023-03-15T06:38:42.069Z,14.70
2023-03-15T06:41:12.511Z,10.60
2023-03-15T06:43:41.142Z,10.40
2023-03-15T06:46:09.622Z,10.10
2023-03-15T06:48:37.998Z,11.30
2023-03-15T06:51:06.634Z,8.40
2023-03-15T06:53:35.054Z,8.70
2023-03-15T06:56:03.610Z,7.90
2023-03-15T06:58:32.019Z,10.10
2023-03-15T07:01:00.472Z,13.60
2023-03-15T07:03:28.952Z,7.00
2023-03-15T07:05:57.407Z,9.80
2023-03-15T07:08:25.863Z,6.70
2023-03-15T07:10:54.344Z,9.50
2023-03-15T07:13:23.500Z,12.20
2023-03-15T07:15:56.570Z,8.10
2023-03-15T07:18:25.013Z,7.20
2023-03-15T07:21:03.093Z,14.00
2023-03-15T07:23:31.751Z,7.90
2023-03-15T07:26:00.666Z,11.10
2023-03-15T07:28:29.565Z,11.20
2023-03-15T07:31:00.169Z,8.50
2023-03-15T07:33:31.401Z,8.40
2023-03-15T07:36:00.475Z,8.60
2023-03-15T07:38:28.957Z,11.50
2023-03-15T07:40:58.232Z,7.90
2023-03-15T07:43:26.706Z,7.20
2023-03-15T07:45:55.540Z,6.70
2023-03-15T07:48:24.007Z,12.20
2023-03-15T07:50:52.624Z,8.60
2023-03-15T07:53:21.022Z,4.80
2023-03-15T07:55:49.760Z,6.40
2023-03-15T07:58:20.287Z,10.30
2023-03-15T08:00:48.778Z,9.80
2023-03-15T08:03:17.660Z,12.40
2023-03-15T08:05:45.980Z,6.80
2023-03-15T08:08:14.308Z,11.40
2023-03-15T08:10:44.562Z,9.20
2023-03-15T08:13:13.924Z,9.30
2023-03-15T08:15:47.014Z,6.90
2023-03-15T08:18:15.492Z,10.30
2023-03-15T08:20:44.064Z,6.50
2023-03-15T08:23:16.301Z,8.00
2023-03-15T08:25:45.325Z,10.90
2023-03-15T08:28:14.365Z,3.70
2023-03-15T08:30:42.771Z,6.50
2023-03-15T08:33:18.468Z,12.70
2023-03-15T08:35:54.850Z,9.10
2023-03-15T08:38:23.280Z,4.90
2023-03-15T08:40:57.128Z,8.00
2023-03-15T08:43:25.797Z,2.30
2023-03-15T08:46:00.993Z,4.30
2023-03-15T08:48:31.663Z,5.90
2023-03-15T08:51:08.950Z,5.30
2023-03-15T08:53:38.400Z,4.20
2023-03-15T08:56:13.766Z,10.80
2023-03-15T09:07:06.142Z,7.40
2023-03-15T09:09:34.746Z,6.30
2023-03-15T09:12:03.327Z,9.20
2023-03-15T09:14:31.608Z,3.80
2023-03-15T09:16:59.998Z,9.60
2023-03-15T09:19:33.124Z,6.50
2023-03-15T09:22:16.090Z,9.00
2023-03-15T09:24:40.786Z,7.70
2023-03-15T09:27:11.779Z,11.80
2023-03-15T09:29:40.451Z,6.20
2023-03-15T09:32:09.251Z,7.40
2023-03-15T09:34:41.984Z,5.20
2023-03-15T09:37:10.643Z,14.80
2023-03-15T09:39:38.934Z,6.50
2023-03-15T09:46:00.587Z,14.80
2023-03-15T09:49:01.178Z,7.00
2023-03-15T09:55:14.176Z,6.50
2023-03-15T09:58:11.349Z,11.20
2023-03-15T10:00:56.736Z,8.70
2023-03-15T10:03:44.021Z,6.80
2023-03-15T10:06:38.056Z,7.80
2023-03-15T10:09:26.888Z,5.10
2023-03-15T10:12:22.509Z,6.20
2023-03-15T10:15:06.140Z,7.40
2023-03-15T10:17:51.101Z,5.80
2023-03-15T10:20:35.969Z,6.80
2023-03-15T10:26:00.919Z,11.30
2023-03-15T10:28:34.805Z,6.10
2023-03-15T10:31:41.435Z,5.50
2023-03-15T10:34:15.082Z,5.40
2023-03-15T10:36:50.003Z,4.70
2023-03-15T10:39:19.336Z,8.30
2023-03-15T10:41:50.665Z,8.80
2023-03-15T10:44:27.114Z,14.00
2023-03-15T10:47:07.035Z,4.10
2023-03-15T10:49:41.546Z,8.60
2023-03-15T10:52:31.801Z,4.70
2023-03-15T10:55:11.708Z,4.40
2023-03-15T10:58:02.030Z,5.80
2023-03-15T11:00:36.401Z,4.40
2023-03-15T11:03:26.294Z,5.90
2023-03-15T11:05:59.647Z,7.20
2023-03-15T11:08:42.260Z,14.20
2023-03-15T11:11:11.148Z,6.90
2023-03-15T11:13:41.908Z,5.60
2023-03-15T11:16:13.077Z,5.80
2023-03-15T11:18:44.217Z,9.20
2023-03-15T11:21:16.120Z,7.90
2023-03-15T11:23:48.928Z,6.00
2023-03-15T11:26:49.741Z,6.50
2023-03-15T11:29:26.793Z,7.40
2023-03-15T11:31:56.871Z,10.00
2023-03-15T11:34:55.553Z,4.70
2023-03-15T11:37:33.419Z,4.50
2023-03-15T11:49:41.032Z,1.40
2023-03-15T11:52:10.807Z,2.80
2023-03-15T11:54:39.214Z,3.40
2023-03-15T11:57:44.200Z,6.20
2023-03-15T12:00:21.921Z,5.10
2023-03-15T12:02:57.833Z,9.00
2023-03-15T12:05:55.264Z,5.10
2023-03-15T12:08:35.569Z,3.90
2023-03-15T12:11:20.794Z,3.70
2023-03-15T12:13:58.326Z,9.50
2023-03-15T12:16:31.017Z,5.50
2023-03-15T12:21:58.741Z,4.70
2023-03-15T12:24:36.255Z,6.30
2023-03-15T12:27:37.273Z,5.70
2023-03-15T12:30:15.208Z,4.80
2023-03-15T12:32:50.268Z,8.20
2023-03-15T12:35:22.709Z,4.90
2023-03-15T12:37:53.807Z,4.10
2023-03-15T12:40:22.945Z,2.70
2023-03-15T12:42:54.833Z,7.40
2023-03-15T12:45:37.838Z,3.30
2023-03-15T12:48:06.664Z,4.10
2023-03-15T12:50:44.295Z,3.40
2023-03-15T12:53:39.737Z,5.00
2023-03-15T12:59:55.300Z,9.60
2023-03-15T13:06:11.170Z,4.50
2023-03-15T13:09:13.630Z,2.40
2023-03-15T13:12:15.448Z,6.50
2023-03-15T13:15:18.094Z,10.70
2023-03-15T13:17:56.328Z,4.60
2023-03-15T13:21:06.550Z,3.90
2023-03-15T13:23:35.349Z,5.20
2023-03-15T13:26:33.392Z,5.40
2023-03-15T13:29:07.884Z,5.90
2023-03-15T13:31:37.950Z,3.80
2023-03-15T13:34:24.254Z,6.50
2023-03-15T13:37:02.121Z,2.90
2023-03-15T13:39:34.455Z,7.90
2023-03-15T13:42:40.729Z,5.10
2023-03-15T13:45:09.094Z,8.10
2023-03-15T13:47:39.428Z,5.40
2023-03-15T13:50:12.732Z,6.60
2023-03-15T13:52:42.591Z,3.70
2023-03-15T13:55:20.690Z,6.20
2023-03-15T13:57:57.348Z,5.80
2023-03-15T14:00:27.100Z,8.10
2023-03-15T14:03:00.564Z,3.60
2023-03-15T14:08:29.922Z,11.00
2023-03-15T14:11:10.104Z,7.80
2023-03-15T14:14:02.611Z,5.70
2023-03-15T14:17:03.051Z,3.00
2023-03-15T14:19:56.822Z,7.00
2023-03-15T14:22:25.357Z,2.50
2023-03-15T14:24:53.740Z,5.20
2023-03-15T14:27:27.565Z,3.80
2023-03-15T14:30:02.395Z,8.00
2023-03-15T14:32:35.403Z,5.90
2023-03-15T14:38:21.593Z,7.80
2023-03-15T14:40:52.644Z,11.70
2023-03-15T14:43:21.269Z,4.90
2023-03-15T14:45:49.746Z,10.90
2023-03-15T14:48:32.263Z,14.00
2023-03-15T14:51:00.980Z,7.20
2023-03-15T14:53:37.160Z,10.90
2023-03-15T14:56:06.179Z,17.20
2023-03-15T14:58:34.527Z,9.00
2023-03-15T15:01:03.772Z,8.10
2023-03-15T15:06:32.281Z,6.20
2023-03-15T15:09:02.865Z,3.90
2023-03-15T15:11:31.625Z,5.00
2023-03-15T15:14:00.002Z,3.90
2023-03-15T15:16:28.464Z,4.80
2023-03-15T15:18:56.829Z,3.70
2023-03-15T15:21:33.817Z,4.40
2023-03-15T15:24:13.521Z,4.00
2023-03-15T15:26:42.697Z,6.70
2023-03-15T15:29:16.382Z,4.50
2023-03-15T15:31:46.130Z,4.30
2023-03-15T15:34:14.982Z,4.10
2023-03-15T15:36:45.130Z,11.60
2023-03-15T15:39:22.846Z,6.50
2023-03-15T15:41:51.153Z,6.70
2023-03-15T15:44:22.955Z,3.80
2023-03-15T15:46:51.884Z,6.90
2023-03-15T15:49:21.123Z,3.70
2023-03-15T15:51:50.225Z,4.60
2023-03-15T15:54:22.883Z,3.70
2023-03-15T15:59:46.857Z,5.10
2023-03-15T16:02:22.219Z,6.90
2023-03-15T16:04:51.365Z,5.80
2023-03-15T16:10:27.701Z,9.70
2023-03-15T16:12:57.923Z,6.80
2023-03-15T16:18:59.816Z,13.60
2023-03-15T16:22:10.877Z,5.80
2023-03-15T16:24:45.367Z,8.50
2023-03-15T16:27:17.324Z,5.90
2023-03-15T16:29:48.756Z,8.70
2023-03-15T16:32:29.799Z,10.30
2023-03-15T16:35:02.535Z,9.00
2023-03-15T16:37:32.712Z,8.40
2023-03-15T16:40:01.788Z,9.80
2023-03-15T16:42:30.411Z,11.10
2023-03-15T16:44:58.868Z,12.80
2023-03-15T16:47:27.289Z,16.30
2023-03-15T16:49:55.593Z,29.40
2023-03-15T16:52:23.982Z,14.70
2023-03-15T16:55:30.314Z,14.30
2023-03-15T16:58:03.114Z,14.20
2023-03-15T17:00:31.770Z,10.00
2023-03-15T17:19:52.921Z,13.30
2023-03-15T17:22:23.174Z,9.00
2023-03-15T17:24:51.653Z,11.30
2023-03-15T17:27:43.740Z,10.40
2023-03-15T17:30:31.192Z,10.50
2023-03-15T17:33:00.210Z,12.50
2023-03-15T17:35:36.218Z,11.50
2023-03-15T17:38:07.339Z,14.60
2023-03-15T17:40:36.450Z,12.80
2023-03-15T17:43:05.065Z,13.60
2023-03-15T17:45:34.955Z,14.10
2023-03-15T17:48:04.316Z,22.20
2023-03-15T17:50:34.753Z,31.30
2023-03-15T17:53:21.195Z,33.80
2023-03-15T17:55:49.871Z,72.80
2023-03-15T17:58:21.558Z,68.50
2023-03-15T18:00:52.618Z,56.00
2023-03-15T18:03:22.503Z,40.50
2023-03-15T18:05:51.105Z,36.30
2023-03-15T18:08:21.418Z,27.80
2023-03-15T18:10:51.525Z,30.60
2023-03-15T18:13:22.085Z,30.40
2023-03-15T18:15:51.565Z,20.70
2023-03-15T18:18:20.676Z,19.20
2023-03-15T18:20:49.603Z,20.50
2023-03-15T18:23:18.680Z,16.30
2023-03-15T18:25:47.117Z,12.70
2023-03-15T18:28:15.512Z,17.20
2023-03-15T18:30:44.805Z,15.10
2023-03-15T18:33:15.622Z,13.50
2023-03-15T18:35:44.115Z,9.40
2023-03-15T18:38:13.022Z,9.10
2023-03-15T18:40:46.046Z,14.10
2023-03-15T18:43:15.048Z,38.90
2023-03-15T18:48:59.314Z,25.20
2023-03-15T18:51:30.729Z,24.70
2023-03-15T18:53:59.062Z,21.60
2023-03-15T18:59:39.543Z,19.00
2023-03-15T19:02:09.370Z,18.70
2023-03-15T19:04:38.297Z,36.50
2023-03-15T19:07:06.568Z,42.40
2023-03-15T19:09:34.910Z,35.90
2023-03-15T19:12:03.285Z,25.80
2023-03-15T19:14:31.793Z,26.40
2023-03-15T19:17:00.308Z,24.00
2023-03-15T19:19:29.374Z,19.20
2023-03-15T19:21:57.802Z,20.80
2023-03-15T19:24:26.155Z,27.90
2023-03-15T19:26:54.554Z,28.30
2023-03-15T19:29:22.857Z,28.90
2023-03-15T19:32:05.033Z,35.00
2023-03-15T19:34:33.497Z,33.60
2023-03-15T19:37:01.948Z,43.00
2023-03-15T19:39:30.646Z,52.90
2023-03-15T19:41:58.935Z,54.30
2023-03-15T19:44:28.056Z,49.90
2023-03-15T19:46:56.952Z,44.50
2023-03-15T19:49:25.414Z,40.30
2023-03-15T19:51:53.821Z,34.70
2023-03-15T19:54:22.172Z,30.30
2023-03-15T19:56:50.953Z,30.80
2023-03-15T19:59:26.952Z,26.70
2023-03-15T20:01:55.482Z,31.00
2023-03-15T20:04:23.865Z,30.60
2023-03-15T20:07:22.302Z,51.50
2023-03-15T20:09:50.633Z,60.40
2023-03-15T20:12:42.823Z,57.20
2023-03-15T20:15:14.305Z,78.90
2023-03-15T20:17:43.149Z,39.40
2023-03-15T20:20:13.966Z,28.90
2023-03-15T20:22:44.652Z,30.90
2023-03-15T20:25:18.241Z,32.90
2023-03-15T20:27:47.438Z,34.10
2023-03-15T20:30:18.582Z,45.50
2023-03-15T20:32:56.938Z,59.40
2023-03-15T20:35:25.828Z,83.00
2023-03-15T20:41:14.291Z,98.30
2023-03-15T20:43:43.113Z,74.80
2023-03-15T20:46:13.556Z,41.40
2023-03-15T20:48:42.178Z,30.40
2023-03-15T20:51:11.804Z,29.10
2023-03-15T20:53:55.945Z,25.90
2023-03-15T20:56:34.787Z,26.70
2023-03-15T21:08:09.953Z,25.00
2023-03-15T21:10:39.039Z,27.10
2023-03-15T21:13:10.096Z,26.20
2023-03-15T21:15:46.108Z,28.40
2023-03-15T21:18:16.873Z,30.30
2023-03-15T21:20:45.406Z,31.80
2023-03-15T21:23:13.736Z,28.10
2023-03-15T21:25:42.062Z,32.90
2023-03-15T21:28:10.564Z,29.00
2023-03-15T21:30:38.985Z,20.70
2023-03-15T21:33:14.202Z,31.50
2023-03-15T21:35:45.721Z,41.50
2023-03-15T21:38:14.569Z,61.30
2023-03-15T21:40:48.180Z,82.10
2023-03-15T21:43:16.523Z,65.90
2023-03-15T21:45:45.006Z,57.40
2023-03-15T21:48:13.452Z,43.20
2023-03-15T21:50:41.763Z,48.90
2023-03-15T21:53:10.239Z,47.10
2023-03-15T21:55:38.638Z,39.40
2023-03-15T21:58:07.015Z,46.80
2023-03-15T22:00:35.487Z,40.30
2023-03-15T22:03:06.041Z,40.40
2023-03-15T22:05:38.326Z,40.30
2023-03-15T22:08:06.935Z,31.30
2023-03-15T22:10:35.343Z,29.60
2023-03-15T22:13:03.681Z,28.80
2023-03-15T22:15:33.870Z,32.20
2023-03-15T22:18:02.831Z,32.30
2023-03-15T22:20:31.255Z,32.00
2023-03-15T22:22:59.592Z,28.70
2023-03-15T22:25:27.976Z,25.40
2023-03-15T22:27:56.377Z,30.00
2023-03-15T22:30:25.083Z,32.10
2023-03-15T22:32:54.256Z,27.70
2023-03-15T22:35:23.391Z,28.50
2023-03-15T22:37:56.948Z,31.00
2023-03-15T22:40:28.105Z,34.60
2023-03-15T22:42:57.575Z,32.60
2023-03-15T22:45:26.128Z,37.70
2023-03-15T22:47:54.694Z,44.10
2023-03-15T22:50:23.731Z,39.90
2023-03-15T22:52:52.512Z,36.30
2023-03-15T22:55:21.562Z,31.00
2023-03-15T22:57:49.935Z,34.90
2023-03-15T23:00:45.037Z,28.40
2023-03-15T23:03:13.437Z,29.20
2023-03-15T23:05:42.532Z,28.70
2023-03-15T23:08:11.197Z,34.90
2023-03-15T23:10:41.957Z,32.60
2023-03-15T23:13:10.399Z,35.90
2023-03-15T23:15:39.191Z,36.00
2023-03-15T23:18:08.129Z,29.30
2023-03-15T23:20:37.602Z,31.20
2023-03-15T23:23:06.003Z,32.20
2023-03-15T23:25:38.909Z,34.90
2023-03-15T23:28:07.781Z,46.10
2023-03-15T23:30:36.543Z,41.20
2023-03-15T23:33:05.049Z,32.70
2023-03-15T23:35:33.426Z,38.60
2023-03-15T23:38:01.881Z,42.80
2023-03-15T23:40:30.346Z,47.80
2023-03-15T23:42:59.307Z,48.00
2023-03-15T23:45:30.065Z,48.50
2023-03-15T23:47:58.781Z,44.70
2023-03-15T23:50:27.669Z,39.20
2023-03-15T23:52:56.574Z,29.70
2023-03-15T23:55:25.010Z,38.60
2023-03-15T23:57:53.364Z,41.90
